createdAt,value
2023-05-10T00:01:18.007Z,12.00
2023-05-10T00:03:46.680Z,11.00
2023-05-10T00:06:17.429Z,8.00
2023-05-10T00:08:46.389Z,10.40
2023-05-10T00:11:15.328Z,11.20
2023-05-10T00:13:44.074Z,10.20
2023-05-10T00:16:14.152Z,9.80
2023-05-10T00:18:42.826Z,9.00
2023-05-10T00:21:11.906Z,10.40
2023-05-10T00:23:41.904Z,10.00
2023-05-10T00:26:10.971Z,9.00
2023-05-10T00:28:40.252Z,11.20
2023-05-10T00:31:09.082Z,11.20
2023-05-10T00:33:37.786Z,9.80
2023-05-10T00:36:08.480Z,9.60
2023-05-10T00:38:36.979Z,6.40
2023-05-10T00:41:07.674Z,9.60
2023-05-10T00:43:37.589Z,10.80
2023-05-10T00:46:07.295Z,9.40
2023-05-10T00:48:36.805Z,10.60
2023-05-10T00:51:06.123Z,10.80
2023-05-10T00:53:36.193Z,11.00
2023-05-10T00:56:05.473Z,9.20
2023-05-10T00:58:35.522Z,9.00
2023-05-10T01:01:05.145Z,9.00
2023-05-10T01:03:34.899Z,9.20
2023-05-10T01:06:04.411Z,11.00
2023-05-10T01:08:33.063Z,8.60
2023-05-10T01:11:02.094Z,9.00
2023-05-10T01:13:35.828Z,9.00
2023-05-10T01:16:05.094Z,10.60
2023-05-10T01:18:37.379Z,10.00
2023-05-10T01:21:19.436Z,9.20
2023-05-10T01:24:17.351Z,11.20
2023-05-10T01:27:14.727Z,9.60
2023-05-10T01:32:45.878Z,11.60
2023-05-10T01:35:21.422Z,10.00
2023-05-10T01:37:59.549Z,10.00
2023-05-10T01:40:34.622Z,9.00
2023-05-10T01:43:06.517Z,10.80
2023-05-10T01:45:42.637Z,8.80
2023-05-10T01:48:13.903Z,9.60
2023-05-10T01:50:45.747Z,8.60
2023-05-10T01:53:16.654Z,10.00
2023-05-10T01:55:49.756Z,10.00
2023-05-10T01:58:23.372Z,10.60
2023-05-10T02:00:54.519Z,8.80
2023-05-10T02:03:27.553Z,5.80
2023-05-10T02:05:58.215Z,8.00
2023-05-10T02:08:28.583Z,8.60
2023-05-10T02:11:01.633Z,9.00
2023-05-10T02:13:33.931Z,6.40
2023-05-10T02:16:05.684Z,9.00
2023-05-10T02:18:38.137Z,10.00
2023-05-10T02:21:07.241Z,10.00
2023-05-10T02:23:37.863Z,10.20
2023-05-10T02:26:08.722Z,8.00
2023-05-10T02:28:39.221Z,9.80
2023-05-10T02:31:10.213Z,10.60
2023-05-10T02:33:43.193Z,9.00
2023-05-10T02:36:13.078Z,9.40
2023-05-10T02:38:43.465Z,10.00
2023-05-10T02:41:13.361Z,8.00
2023-05-10T02:43:44.127Z,9.00
2023-05-10T02:46:12.926Z,9.20
2023-05-10T02:48:43.565Z,10.80
2023-05-10T02:51:18.695Z,10.00
2023-05-10T02:53:50.417Z,10.00
2023-05-10T02:56:31.006Z,9.80
2023-05-10T02:58:59.984Z,9.60
2023-05-10T03:01:28.662Z,11.20
2023-05-10T03:03:59.037Z,10.00
2023-05-10T03:06:27.955Z,10.00
2023-05-10T03:08:57.544Z,11.00
2023-05-10T03:11:34.272Z,9.20
2023-05-10T03:14:23.420Z,9.60
2023-05-10T03:17:02.457Z,12.50
2023-05-10T03:19:42.114Z,11.80
2023-05-10T03:22:13.285Z,11.60
2023-05-10T03:24:44.524Z,10.80
2023-05-10T03:27:15.430Z,11.20
2023-05-10T03:29:47.663Z,10.00
2023-05-10T03:32:16.948Z,10.00
2023-05-10T03:34:47.206Z,9.60
2023-05-10T03:37:16.050Z,10.60
2023-05-10T03:39:45.173Z,11.20
2023-05-10T03:42:14.036Z,11.20
2023-05-10T03:44:43.024Z,12.80
2023-05-10T03:47:11.776Z,10.00
2023-05-10T03:49:40.841Z,9.20
2023-05-10T03:52:10.978Z,10.20
2023-05-10T03:54:40.079Z,10.80
2023-05-10T03:57:08.625Z,10.60
2023-05-10T03:59:37.579Z,9.60
2023-05-10T04:02:06.151Z,10.40
2023-05-10T04:04:35.045Z,11.60
2023-05-10T04:07:03.939Z,10.20
2023-05-10T04:09:34.375Z,6.00
2023-05-10T04:12:03.649Z,10.20
2023-05-10T04:14:32.791Z,10.00
2023-05-10T04:17:02.479Z,10.80
2023-05-10T04:19:32.237Z,13.25
2023-05-10T04:22:01.065Z,12.00
2023-05-10T04:24:30.209Z,9.20
2023-05-10T04:27:00.401Z,10.00
2023-05-10T04:29:29.337Z,11.60
2023-05-10T04:31:58.276Z,10.00
2023-05-10T04:34:27.516Z,16.60
2023-05-10T04:36:56.285Z,12.00
2023-05-10T04:39:25.137Z,10.60
2023-05-10T04:41:53.972Z,11.00
2023-05-10T04:44:24.458Z,10.60
2023-05-10T04:46:53.032Z,11.00
2023-05-10T04:49:22.110Z,12.00
2023-05-10T04:51:50.652Z,10.00
2023-05-10T04:54:19.611Z,10.00
2023-05-10T04:56:48.162Z,10.80
2023-05-10T04:59:17.187Z,11.40
2023-05-10T05:01:47.108Z,13.80
2023-05-10T05:04:16.863Z,10.40
2023-05-10T05:06:45.337Z,12.80
2023-05-10T05:09:14.514Z,11.80
2023-05-10T05:11:43.094Z,11.00
2023-05-10T05:14:12.106Z,13.00
2023-05-10T05:16:40.782Z,11.60
2023-05-10T05:19:11.057Z,12.40
2023-05-10T05:21:40.066Z,12.00
2023-05-10T05:24:09.688Z,12.00
2023-05-10T05:26:38.780Z,13.80
2023-05-10T05:29:07.871Z,14.00
2023-05-10T05:31:36.618Z,13.20
2023-05-10T05:34:05.770Z,12.20
2023-05-10T05:36:39.507Z,11.80
2023-05-10T05:39:08.512Z,12.00
2023-05-10T05:41:37.118Z,11.20
2023-05-10T05:44:06.069Z,13.00
2023-05-10T05:46:34.696Z,10.60
2023-05-10T05:49:03.813Z,12.00
2023-05-10T05:51:33.310Z,11.80
2023-05-10T05:54:05.501Z,13.20
2023-05-10T05:56:34.481Z,12.80
2023-05-10T05:59:03.215Z,12.80
2023-05-10T06:01:32.481Z,10.40
2023-05-10T06:04:01.283Z,9.80
2023-05-10T06:06:30.393Z,11.00
2023-05-10T06:08:59.103Z,10.80
2023-05-10T06:11:29.506Z,10.00
2023-05-10T06:14:00.584Z,12.00
2023-05-10T06:16:30.031Z,9.40
2023-05-10T06:18:58.757Z,10.00
2023-05-10T06:21:28.105Z,9.80
2023-05-10T06:23:56.958Z,10.80
2023-05-10T06:26:26.187Z,9.80
2023-05-10T06:28:56.372Z,11.40
2023-05-10T06:31:25.700Z,11.00
2023-05-10T06:33:56.079Z,10.80
2023-05-10T06:36:27.437Z,10.80
2023-05-10T06:38:56.131Z,9.60
2023-05-10T06:41:25.287Z,10.20
2023-05-10T06:43:53.958Z,11.00
2023-05-10T06:46:24.249Z,11.20
2023-05-10T06:48:52.825Z,8.80
2023-05-10T06:51:22.288Z,9.00
2023-05-10T06:53:50.855Z,11.00
2023-05-10T06:56:22.489Z,12.40
2023-05-10T06:58:51.376Z,10.20
2023-05-10T07:01:20.415Z,10.20
2023-05-10T07:03:50.550Z,10.20
2023-05-10T07:06:32.340Z,9.80
2023-05-10T07:09:02.644Z,10.40
2023-05-10T07:11:31.881Z,10.80
2023-05-10T07:14:00.758Z,10.00
2023-05-10T07:16:29.823Z,7.20
2023-05-10T07:18:59.871Z,11.20
2023-05-10T07:21:29.766Z,11.60
2023-05-10T07:23:58.718Z,12.00
2023-05-10T07:26:27.687Z,11.00
2023-05-10T07:28:56.517Z,9.00
2023-05-10T07:31:25.517Z,10.60
2023-05-10T07:33:54.300Z,6.60
2023-05-10T07:36:24.514Z,10.00
2023-05-10T07:38:53.115Z,8.00
2023-05-10T07:41:21.994Z,10.60
2023-05-10T07:43:50.516Z,11.00
2023-05-10T07:46:20.501Z,9.20
2023-05-10T07:48:49.169Z,12.00
2023-05-10T07:51:18.147Z,11.80
2023-05-10T07:53:48.125Z,12.00
2023-05-10T07:56:26.112Z,10.80
2023-05-10T07:58:55.000Z,10.00
2023-05-10T08:01:24.601Z,10.00
2023-05-10T08:03:54.594Z,10.00
2023-05-10T08:06:24.423Z,10.20
2023-05-10T08:08:55.180Z,9.00
2023-05-10T08:11:24.842Z,7.80
2023-05-10T08:13:53.887Z,8.00
2023-05-10T08:16:23.243Z,9.80
2023-05-10T08:18:52.747Z,7.80
2023-05-10T08:21:21.747Z,8.80
2023-05-10T08:23:50.379Z,8.20
2023-05-10T08:26:22.002Z,9.80
2023-05-10T08:28:50.676Z,9.00
2023-05-10T08:31:20.176Z,8.60
2023-05-10T08:33:48.877Z,8.40
2023-05-10T08:36:22.459Z,8.40
2023-05-10T08:38:52.680Z,9.00
2023-05-10T08:41:24.899Z,8.60
2023-05-10T08:43:53.933Z,8.00
2023-05-10T08:46:24.695Z,9.80
2023-05-10T08:48:54.204Z,9.40
2023-05-10T08:51:27.754Z,6.00
2023-05-10T08:53:57.154Z,9.00
2023-05-10T08:56:27.458Z,10.00
2023-05-10T08:58:56.223Z,10.00
2023-05-10T09:01:25.853Z,9.00
2023-05-10T09:03:55.244Z,8.80
2023-05-10T09:06:24.389Z,9.00
2023-05-10T09:08:54.807Z,8.60
2023-05-10T09:11:24.187Z,9.20
2023-05-10T09:13:54.922Z,7.00
2023-05-10T09:16:24.095Z,10.20
2023-05-10T09:18:52.698Z,10.00
2023-05-10T09:21:21.875Z,10.20
2023-05-10T09:23:51.963Z,9.40
2023-05-10T09:26:25.065Z,8.00
2023-05-10T09:28:57.780Z,8.80
2023-05-10T09:31:44.986Z,7.00
2023-05-10T09:34:13.561Z,7.00
2023-05-10T09:36:53.393Z,8.00
2023-05-10T09:39:22.461Z,7.00
2023-05-10T09:41:51.465Z,7.20
2023-05-10T09:44:21.622Z,5.00
2023-05-10T09:46:53.905Z,6.60
2023-05-10T09:49:23.498Z,7.40
2023-05-10T09:52:03.558Z,8.40
2023-05-10T09:54:33.246Z,8.20
2023-05-10T09:57:02.276Z,6.60
2023-05-10T09:59:32.564Z,5.80
2023-05-10T10:02:02.498Z,6.80
2023-05-10T10:04:31.387Z,6.60
2023-05-10T10:07:05.449Z,7.80
2023-05-10T10:09:34.892Z,5.00
2023-05-10T10:12:04.829Z,7.00
2023-05-10T10:14:36.330Z,7.40
2023-05-10T10:17:08.607Z,5.60
2023-05-10T10:19:38.412Z,4.80
2023-05-10T10:22:07.855Z,0.40
2023-05-10T10:24:36.554Z,7.20
2023-05-10T10:27:17.161Z,8.20
2023-05-10T10:29:58.843Z,6.20
2023-05-10T10:32:39.844Z,7.60
2023-05-10T10:35:10.445Z,6.40
2023-05-10T10:37:46.508Z,7.00
2023-05-10T10:40:28.873Z,7.00
2023-05-10T10:42:58.464Z,8.20
2023-05-10T10:45:28.583Z,7.40
2023-05-10T10:48:31.343Z,6.60
2023-05-10T10:51:00.094Z,6.60
2023-05-10T10:53:30.228Z,6.00
2023-05-10T10:56:10.418Z,6.60
2023-05-10T10:58:40.867Z,4.80
2023-05-10T11:01:18.461Z,5.60
2023-05-10T11:04:21.510Z,6.00
2023-05-10T11:06:50.309Z,5.00
2023-05-10T11:09:19.408Z,7.00
2023-05-10T11:11:53.299Z,4.60
2023-05-10T11:14:23.732Z,3.00
2023-05-10T11:16:53.832Z,7.00
2023-05-10T11:19:22.868Z,6.00
2023-05-10T11:21:52.827Z,5.80
2023-05-10T11:24:24.607Z,6.20
2023-05-10T11:26:53.353Z,6.00
2023-05-10T11:29:22.437Z,4.80
2023-05-10T11:31:53.301Z,6.40
2023-05-10T11:34:26.790Z,6.00
2023-05-10T11:36:56.839Z,6.60
2023-05-10T11:39:28.946Z,6.00
2023-05-10T11:41:58.270Z,5.40
2023-05-10T11:44:31.764Z,6.00
2023-05-10T11:47:02.830Z,6.20
2023-05-10T11:49:32.220Z,6.80
2023-05-10T11:52:08.207Z,7.00
2023-05-10T11:54:37.215Z,5.20
2023-05-10T11:57:06.116Z,5.60
2023-05-10T11:59:35.124Z,5.20
2023-05-10T12:02:05.529Z,6.20
2023-05-10T12:04:34.983Z,6.00
2023-05-10T12:07:03.759Z,6.00
2023-05-10T12:09:43.284Z,4.00
2023-05-10T12:12:18.047Z,6.00
2023-05-10T12:14:51.207Z,5.00
2023-05-10T12:17:21.159Z,5.80
2023-05-10T12:19:50.297Z,6.00
2023-05-10T12:22:25.671Z,5.00
2023-05-10T12:24:54.577Z,5.80
2023-05-10T12:27:23.220Z,5.20
2023-05-10T12:29:52.726Z,5.40
2023-05-10T12:32:22.696Z,6.40
2023-05-10T12:34:54.716Z,5.60
2023-05-10T12:37:26.813Z,5.00
2023-05-10T12:39:55.711Z,5.20
2023-05-10T12:42:26.227Z,5.00
2023-05-10T12:44:57.658Z,6.20
2023-05-10T12:47:27.899Z,3.00
2023-05-10T12:49:56.913Z,4.60
2023-05-10T12:52:25.758Z,5.00
2023-05-10T12:54:54.859Z,4.20
2023-05-10T12:57:23.565Z,4.40
2023-05-10T12:59:52.824Z,1.40
2023-05-10T13:02:22.147Z,4.80
2023-05-10T13:04:53.163Z,4.00
2023-05-10T13:07:21.761Z,4.00
2023-05-10T13:09:50.789Z,5.00
2023-05-10T13:12:19.271Z,5.00
2023-05-10T13:14:48.351Z,5.00
2023-05-10T13:17:16.986Z,6.00
2023-05-10T13:19:46.174Z,5.20
2023-05-10T13:22:22.810Z,4.60
2023-05-10T13:24:57.935Z,2.20
2023-05-10T13:27:26.919Z,4.40
2023-05-10T13:29:56.037Z,5.00
2023-05-10T13:32:24.989Z,5.00
2023-05-10T13:34:54.065Z,2.60
2023-05-10T13:37:24.209Z,4.80
2023-05-10T13:39:53.437Z,4.60
2023-05-10T13:42:22.078Z,5.60
2023-05-10T13:44:51.389Z,6.00
2023-05-10T13:47:20.079Z,5.40
2023-05-10T13:49:49.031Z,6.00
2023-05-10T13:52:17.517Z,5.60
2023-05-10T13:54:47.744Z,5.00
2023-05-10T13:57:17.828Z,4.20
2023-05-10T13:59:46.836Z,5.00
2023-05-10T14:02:15.537Z,4.40
2023-05-10T14:04:44.464Z,5.00
2023-05-10T14:07:13.116Z,5.00
2023-05-10T14:09:42.855Z,5.80
2023-05-10T14:12:12.981Z,5.60
2023-05-10T14:14:42.089Z,6.00
2023-05-10T14:17:12.508Z,1.20
2023-05-10T14:19:41.439Z,4.60
2023-05-10T14:22:10.013Z,5.40
2023-05-10T14:24:40.206Z,4.80
2023-05-10T14:27:08.867Z,6.60
2023-05-10T14:29:39.090Z,5.00
2023-05-10T14:32:07.940Z,5.80
2023-05-10T14:34:36.901Z,6.40
2023-05-10T14:37:05.621Z,6.80
2023-05-10T14:39:34.644Z,3.80
2023-05-10T14:42:03.681Z,5.00
2023-05-10T14:44:32.654Z,4.60
2023-05-10T14:47:02.624Z,5.20
2023-05-10T14:49:31.522Z,6.00
2023-05-10T14:52:00.177Z,4.80
2023-05-10T14:54:29.377Z,2.20
2023-05-10T14:56:57.910Z,3.60
2023-05-10T14:59:26.696Z,5.20
2023-05-10T15:01:55.627Z,4.20
2023-05-10T15:04:28.428Z,4.00
2023-05-10T15:07:00.370Z,5.40
2023-05-10T15:09:29.471Z,5.80
2023-05-10T15:11:58.281Z,3.80
2023-05-10T15:14:27.307Z,5.20
2023-05-10T15:16:56.224Z,3.60
2023-05-10T15:19:26.711Z,4.60
2023-05-10T15:21:55.555Z,7.40
2023-05-10T15:24:24.541Z,5.60
2023-05-10T15:26:53.306Z,5.00
2023-05-10T15:29:22.325Z,6.20
2023-05-10T15:31:52.385Z,9.60
2023-05-10T15:34:21.460Z,4.60
2023-05-10T15:36:51.591Z,5.00
2023-05-10T15:39:20.652Z,5.40
2023-05-10T15:41:49.936Z,5.00
2023-05-10T15:44:19.600Z,5.40
2023-05-10T15:46:48.262Z,6.60
2023-05-10T15:49:17.343Z,5.60
2023-05-10T15:51:46.161Z,5.40
2023-05-10T15:54:16.749Z,5.00
2023-05-10T15:56:45.502Z,5.00
2023-05-10T15:59:14.467Z,6.00
2023-05-10T16:01:43.384Z,2.60
2023-05-10T16:04:15.413Z,4.60
2023-05-10T16:06:44.213Z,3.60
2023-05-10T16:09:13.052Z,4.20
2023-05-10T16:11:44.158Z,3.60
2023-05-10T16:14:13.449Z,5.60
2023-05-10T16:16:43.273Z,5.20
2023-05-10T16:19:12.499Z,4.00
2023-05-10T16:21:41.130Z,4.40
2023-05-10T16:24:10.301Z,6.20
2023-05-10T16:26:41.177Z,6.80
2023-05-10T16:29:11.783Z,7.00
2023-05-10T16:31:40.456Z,5.00
2023-05-10T16:34:12.258Z,6.00
2023-05-10T16:36:41.184Z,6.80
2023-05-10T16:39:10.504Z,7.40
2023-05-10T16:41:39.080Z,7.00
2023-05-10T16:44:07.958Z,7.60
2023-05-10T16:46:38.087Z,7.20
2023-05-10T16:49:08.879Z,9.40
2023-05-10T16:51:37.638Z,7.40
2023-05-10T16:54:06.637Z,7.80
2023-05-10T16:56:35.221Z,7.40
2023-05-10T16:59:04.563Z,6.00
2023-05-10T17:01:33.298Z,7.20
2023-05-10T17:04:04.467Z,7.00
2023-05-10T17:06:33.403Z,8.00
2023-05-10T17:09:02.497Z,7.80
2023-05-10T17:11:31.192Z,8.60
2023-05-10T17:14:01.113Z,9.00
2023-05-10T17:16:30.615Z,9.00
2023-05-10T17:18:59.987Z,7.60
2023-05-10T17:21:30.055Z,7.60
2023-05-10T17:23:59.131Z,7.00
2023-05-10T17:26:30.115Z,3.00
2023-05-10T17:29:00.070Z,7.40
2023-05-10T17:31:29.872Z,8.00
2023-05-10T17:33:59.054Z,7.40
2023-05-10T17:36:29.450Z,7.40
2023-05-10T17:38:58.728Z,9.00
2023-05-10T17:41:27.330Z,6.20
2023-05-10T17:43:56.405Z,7.00
2023-05-10T17:46:25.309Z,7.00
2023-05-10T17:48:54.487Z,8.20
2023-05-10T17:51:23.304Z,7.80
2023-05-10T17:53:53.891Z,8.20
2023-05-10T17:56:23.211Z,6.00
2023-05-10T17:58:52.338Z,8.60
2023-05-10T18:01:21.992Z,8.00
2023-05-10T18:03:51.885Z,8.20
2023-05-10T18:06:20.590Z,8.00
2023-05-10T18:08:49.567Z,8.20
2023-05-10T18:11:20.122Z,8.80
2023-05-10T18:13:49.269Z,7.00
2023-05-10T18:16:18.147Z,7.00
2023-05-10T18:18:47.288Z,8.00
2023-05-10T18:21:16.077Z,9.80
2023-05-10T18:23:45.117Z,8.00
2023-05-10T18:26:14.155Z,8.40
2023-05-10T18:28:44.591Z,6.00
2023-05-10T18:31:13.559Z,7.00
2023-05-10T18:33:42.659Z,8.00
2023-05-10T18:36:11.804Z,9.00
2023-05-10T18:38:41.340Z,7.00
2023-05-10T18:41:12.448Z,8.00
2023-05-10T18:43:42.581Z,7.00
2023-05-10T18:46:12.883Z,5.60
2023-05-10T18:48:41.814Z,7.20
2023-05-10T18:51:10.689Z,8.00
2023-05-10T18:53:39.800Z,8.20
2023-05-10T18:56:08.654Z,9.60
2023-05-10T18:58:38.383Z,6.60
2023-05-10T19:01:08.023Z,6.80
2023-05-10T19:03:38.431Z,7.20
2023-05-10T19:06:07.151Z,8.00
2023-05-10T19:08:36.263Z,6.80
2023-05-10T19:11:04.855Z,7.00
2023-05-10T19:13:34.017Z,8.20
2023-05-10T19:16:07.004Z,7.00
2023-05-10T19:18:38.329Z,8.00
2023-05-10T19:21:10.694Z,10.20
2023-05-10T19:23:41.743Z,7.20
2023-05-10T19:26:11.153Z,9.00
2023-05-10T19:28:40.388Z,6.60
2023-05-10T19:31:09.405Z,9.00
2023-05-10T19:33:39.120Z,8.00
2023-05-10T19:36:10.213Z,7.40
2023-05-10T19:38:39.377Z,8.80
2023-05-10T19:41:08.200Z,8.00
2023-05-10T19:43:38.430Z,6.20
2023-05-10T19:46:08.995Z,8.60
2023-05-10T19:48:38.008Z,6.80
2023-05-10T19:51:09.903Z,8.00
2023-05-10T19:53:44.192Z,7.40
2023-05-10T19:56:13.051Z,7.20
2023-05-10T19:58:42.803Z,6.00
2023-05-10T20:01:11.729Z,21.80
2023-05-10T20:03:40.583Z,7.40
2023-05-10T20:06:09.319Z,8.80
2023-05-10T20:08:38.144Z,6.00
2023-05-10T20:11:08.055Z,6.20
2023-05-10T20:13:37.040Z,7.00
2023-05-10T20:16:06.942Z,7.40
2023-05-10T20:18:36.158Z,8.20
2023-05-10T20:21:05.363Z,7.20
2023-05-10T20:23:34.270Z,8.00
2023-05-10T20:26:03.006Z,8.00
2023-05-10T20:28:33.636Z,6.60
2023-05-10T20:31:03.344Z,5.00
2023-05-10T20:33:32.463Z,5.60
2023-05-10T20:36:01.306Z,7.00
2023-05-10T20:38:30.210Z,6.00
2023-05-10T20:40:58.851Z,7.80
2023-05-10T20:43:29.208Z,8.00
2023-05-10T20:46:05.221Z,7.40
2023-05-10T20:48:34.651Z,5.60
2023-05-10T20:51:03.434Z,5.60
2023-05-10T20:53:32.358Z,6.40
2023-05-10T20:56:01.138Z,7.00
2023-05-10T20:58:30.175Z,10.00
2023-05-10T21:01:01.953Z,6.20
2023-05-10T21:03:31.250Z,6.60
2023-05-10T21:06:00.685Z,6.60
2023-05-10T21:08:29.825Z,5.80
2023-05-10T21:10:58.627Z,7.40
2023-05-10T21:13:27.527Z,7.20
2023-05-10T21:15:56.235Z,6.40
2023-05-10T21:18:26.875Z,7.60
2023-05-10T21:20:55.562Z,7.00
2023-05-10T21:23:24.411Z,7.50
2023-05-10T21:25:53.626Z,7.00
2023-05-10T21:28:22.782Z,7.60
2023-05-10T21:30:51.402Z,7.00
2023-05-10T21:33:20.325Z,7.20
2023-05-10T21:35:50.652Z,7.40
2023-05-10T21:38:19.549Z,8.00
2023-05-10T21:40:48.332Z,6.80
2023-05-10T21:43:17.407Z,7.40
2023-05-10T21:45:46.384Z,7.40
2023-05-10T21:48:15.536Z,7.00
2023-05-10T21:50:44.154Z,7.40
2023-05-10T21:53:14.514Z,5.80
2023-05-10T21:55:43.251Z,6.60
2023-05-10T21:58:12.278Z,7.40
2023-05-10T22:00:40.899Z,7.00
2023-05-10T22:03:09.984Z,6.80
2023-05-10T22:05:39.765Z,7.00
2023-05-10T22:08:09.086Z,6.60
2023-05-10T22:10:39.086Z,7.20
2023-05-10T22:13:07.937Z,7.00
2023-05-10T22:15:36.799Z,5.60
2023-05-10T22:18:06.126Z,6.60
2023-05-10T22:20:34.773Z,6.60
2023-05-10T22:23:03.799Z,7.00
2023-05-10T22:25:32.357Z,5.00
2023-05-10T22:28:03.157Z,7.40
2023-05-10T22:30:33.063Z,6.60
2023-05-10T22:33:02.825Z,6.60
2023-05-10T22:35:31.498Z,6.20
2023-05-10T22:38:00.395Z,5.40
2023-05-10T22:40:28.997Z,6.00
2023-05-10T22:42:57.932Z,9.00
2023-05-10T22:45:28.331Z,7.00
2023-05-10T22:47:57.694Z,7.00
2023-05-10T22:50:26.621Z,8.00
2023-05-10T22:52:55.570Z,6.60
2023-05-10T22:55:24.670Z,6.00
2023-05-10T22:57:53.715Z,5.60
2023-05-10T23:00:22.470Z,4.80
2023-05-10T23:02:53.092Z,6.80
2023-05-10T23:05:21.775Z,6.00
2023-05-10T23:07:53.352Z,5.60
2023-05-10T23:10:22.130Z,7.80
2023-05-10T23:12:51.016Z,7.40
2023-05-10T23:15:19.882Z,7.20
2023-05-10T23:17:48.803Z,8.00
2023-05-10T23:20:19.109Z,7.20
2023-05-10T23:22:48.190Z,7.80
2023-05-10T23:25:17.122Z,9.80
2023-05-10T23:27:45.989Z,5.80
2023-05-10T23:30:14.816Z,7.00
2023-05-10T23:32:43.860Z,6.80
2023-05-10T23:35:12.559Z,7.80
2023-05-10T23:37:43.238Z,7.00
2023-05-10T23:40:13.562Z,6.80
2023-05-10T23:42:42.622Z,8.20
2023-05-10T23:45:12.064Z,6.60
2023-05-10T23:47:41.555Z,6.00
2023-05-10T23:50:11.348Z,6.00
2023-05-10T23:52:40.185Z,6.60
2023-05-10T23:55:11.713Z,5.00
2023-05-10T23:57:40.738Z,6.00
